createdAt,value
2023-12-13T00:01:32.340Z,5.75
2023-12-13T00:03:59.590Z,6.80
2023-12-13T00:06:27.009Z,9.45
2023-12-13T00:08:54.229Z,4.53
2023-12-13T00:11:21.356Z,10.55
2023-12-13T00:13:48.537Z,11.00
2023-12-13T00:16:16.408Z,8.75
2023-12-13T00:18:43.718Z,7.38
2023-12-13T00:21:10.979Z,8.18
2023-12-13T00:23:38.140Z,13.27
2023-12-13T00:26:05.913Z,11.02
2023-12-13T00:28:35.016Z,5.57
2023-12-13T00:31:02.171Z,8.75
2023-12-13T00:33:29.536Z,7.07
2023-12-13T00:35:56.941Z,7.28
2023-12-13T00:38:24.107Z,8.88
2023-12-13T00:40:52.180Z,10.95
2023-12-13T00:43:19.432Z,7.38
2023-12-13T00:45:46.588Z,9.18
2023-12-13T00:48:15.022Z,7.78
2023-12-13T00:50:42.140Z,7.20
2023-12-13T00:53:09.292Z,9.77
2023-12-13T00:55:36.478Z,6.10
2023-12-13T00:58:03.955Z,9.00
2023-12-13T01:00:31.245Z,8.32
2023-12-13T01:02:58.430Z,9.10
2023-12-13T01:05:25.671Z,8.05
2023-12-13T01:07:52.976Z,11.88
2023-12-13T01:10:21.345Z,7.75
2023-12-13T01:12:48.630Z,8.93
2023-12-13T01:15:15.830Z,9.25
2023-12-13T01:17:42.966Z,8.68
2023-12-13T01:20:13.269Z,11.82
2023-12-13T01:22:42.910Z,13.70
2023-12-13T01:25:10.205Z,12.45
2023-12-13T01:27:37.413Z,9.40
2023-12-13T01:30:05.099Z,8.18
2023-12-13T01:32:32.334Z,11.15
2023-12-13T01:34:59.569Z,9.98
2023-12-13T01:37:27.525Z,6.72
2023-12-13T01:39:58.107Z,11.40
2023-12-13T01:42:25.248Z,8.30
2023-12-13T01:44:52.498Z,10.13
2023-12-13T01:47:19.768Z,8.98
2023-12-13T01:49:46.971Z,9.15
2023-12-13T01:52:15.805Z,8.80
2023-12-13T01:54:43.409Z,7.55
2023-12-13T01:57:11.284Z,12.07
2023-12-13T01:59:38.659Z,9.18
2023-12-13T02:02:06.436Z,8.98
2023-12-13T02:04:36.318Z,9.32
2023-12-13T02:07:03.467Z,8.82
2023-12-13T02:09:30.511Z,9.18
2023-12-13T02:11:58.608Z,11.27
2023-12-13T02:14:26.362Z,10.25
2023-12-13T02:16:54.437Z,10.77
2023-12-13T02:19:21.647Z,13.38
2023-12-13T02:21:48.988Z,8.23
2023-12-13T02:24:16.582Z,10.00
2023-12-13T02:26:44.766Z,10.95
2023-12-13T02:29:12.973Z,8.18
2023-12-13T02:31:41.326Z,11.80
2023-12-13T02:34:08.563Z,13.35
2023-12-13T02:36:36.034Z,18.65
2023-12-13T02:39:06.074Z,9.75
2023-12-13T02:41:33.651Z,10.93
2023-12-13T02:44:01.692Z,8.02
2023-12-13T02:46:29.914Z,10.40
2023-12-13T02:49:00.133Z,11.25
2023-12-13T02:51:27.446Z,6.65
2023-12-13T02:53:54.719Z,10.88
2023-12-13T02:56:22.190Z,8.48
2023-12-13T02:58:49.438Z,11.70
2023-12-13T03:01:16.835Z,7.82
2023-12-13T03:03:44.082Z,11.40
2023-12-13T03:06:11.337Z,9.30
2023-12-13T03:08:38.456Z,9.15
2023-12-13T03:11:06.005Z,9.73
2023-12-13T03:13:33.247Z,9.23
2023-12-13T03:16:00.352Z,6.18
2023-12-13T03:18:27.471Z,13.70
2023-12-13T03:20:55.389Z,6.93
2023-12-13T03:23:22.501Z,8.65
2023-12-13T03:25:49.840Z,8.50
2023-12-13T03:28:16.986Z,9.43
2023-12-13T03:30:44.516Z,9.25
2023-12-13T03:33:11.709Z,10.95
2023-12-13T03:35:38.875Z,8.93
2023-12-13T03:38:07.568Z,7.90
2023-12-13T03:40:34.765Z,8.23
2023-12-13T03:43:03.009Z,10.68
2023-12-13T03:45:30.161Z,7.95
2023-12-13T03:47:57.598Z,10.88
2023-12-13T03:50:24.943Z,10.27
2023-12-13T03:52:52.524Z,7.85
2023-12-13T03:55:19.888Z,14.05
2023-12-13T03:57:47.127Z,9.88
2023-12-13T04:00:14.468Z,14.77
2023-12-13T04:02:41.558Z,9.32
2023-12-13T04:05:09.690Z,10.30
2023-12-13T04:07:37.351Z,9.98
2023-12-13T04:10:06.439Z,12.98
2023-12-13T04:12:33.872Z,9.50
2023-12-13T04:15:01.004Z,10.68
2023-12-13T04:17:28.117Z,12.40
2023-12-13T04:19:58.536Z,10.32
2023-12-13T04:22:25.892Z,15.95
2023-12-13T04:24:53.220Z,12.02
2023-12-13T04:27:20.382Z,9.90
2023-12-13T04:29:47.469Z,17.10
2023-12-13T04:32:14.579Z,9.85
2023-12-13T04:34:41.729Z,11.45
2023-12-13T04:37:09.364Z,12.07
2023-12-13T04:39:39.200Z,12.50
2023-12-13T04:42:06.581Z,13.88
2023-12-13T04:44:34.291Z,16.90
2023-12-13T04:47:04.434Z,14.05
2023-12-13T04:49:32.497Z,10.32
2023-12-13T04:51:59.929Z,14.80
2023-12-13T04:54:27.088Z,13.57
2023-12-13T04:56:54.605Z,8.98
2023-12-13T04:59:22.349Z,12.43
2023-12-13T05:01:51.108Z,13.73
2023-12-13T05:04:18.460Z,11.55
2023-12-13T05:06:45.783Z,12.93
2023-12-13T05:09:12.973Z,12.70
2023-12-13T05:11:41.258Z,21.13
2023-12-13T05:14:08.533Z,13.55
2023-12-13T05:16:35.940Z,13.55
2023-12-13T05:19:04.062Z,15.68
2023-12-13T05:21:31.223Z,17.40
2023-12-13T05:23:58.458Z,12.40
2023-12-13T05:26:25.731Z,14.25
2023-12-13T05:28:53.091Z,12.07
2023-12-13T05:31:21.603Z,18.73
2023-12-13T05:33:50.220Z,13.18
2023-12-13T05:36:17.971Z,18.88
2023-12-13T05:38:45.626Z,12.00
2023-12-13T05:41:12.987Z,13.95
2023-12-13T05:43:40.405Z,13.70
2023-12-13T05:46:09.008Z,15.50
2023-12-13T05:48:36.537Z,16.15
2023-12-13T05:51:03.929Z,20.23
2023-12-13T05:53:32.670Z,16.65
2023-12-13T05:56:01.652Z,15.50
2023-12-13T05:58:30.116Z,16.90
2023-12-13T06:00:58.096Z,17.17
2023-12-13T06:03:25.386Z,18.08
2023-12-13T06:05:52.698Z,16.83
2023-12-13T06:08:19.975Z,15.90
2023-12-13T06:10:47.127Z,21.73
2023-12-13T06:13:14.862Z,13.60
2023-12-13T06:15:42.069Z,17.70
2023-12-13T06:18:09.366Z,17.65
2023-12-13T06:20:36.575Z,15.60
2023-12-13T06:23:03.698Z,15.27
2023-12-13T06:25:30.855Z,14.95
2023-12-13T06:27:58.866Z,14.98
2023-12-13T06:30:26.062Z,13.85
2023-12-13T06:32:53.260Z,14.93
2023-12-13T06:35:20.469Z,15.77
2023-12-13T06:37:47.629Z,22.17
2023-12-13T06:40:16.047Z,21.77
2023-12-13T06:42:43.337Z,14.75
2023-12-13T06:45:10.816Z,16.40
2023-12-13T06:47:38.223Z,15.40
2023-12-13T06:50:06.490Z,12.00
2023-12-13T06:52:33.975Z,14.93
2023-12-13T06:55:01.237Z,15.48
2023-12-13T06:57:28.298Z,20.08
2023-12-13T06:59:55.387Z,15.25
2023-12-13T07:02:23.200Z,14.45
2023-12-13T07:04:50.453Z,19.98
2023-12-13T07:07:17.624Z,16.33
2023-12-13T07:09:46.057Z,18.30
2023-12-13T07:12:13.294Z,20.05
2023-12-13T07:14:40.671Z,16.70
2023-12-13T07:17:07.883Z,22.00
2023-12-13T07:19:35.480Z,20.25
2023-12-13T07:22:02.645Z,15.32
2023-12-13T07:24:29.714Z,17.77
2023-12-13T07:26:56.812Z,17.88
2023-12-13T07:29:23.965Z,15.55
2023-12-13T07:31:51.762Z,15.60
2023-12-13T07:34:19.519Z,20.40
2023-12-13T07:36:49.639Z,19.25
2023-12-13T07:39:17.238Z,19.75
2023-12-13T07:41:44.979Z,16.38
2023-12-13T07:44:12.152Z,17.67
2023-12-13T07:46:42.362Z,20.63
2023-12-13T07:49:09.728Z,21.40
2023-12-13T07:51:37.155Z,19.98
2023-12-13T07:54:04.388Z,22.52
2023-12-13T07:56:32.787Z,21.98
2023-12-13T07:59:01.154Z,18.40
2023-12-13T08:01:28.790Z,20.58
2023-12-13T08:03:57.366Z,18.42
2023-12-13T08:06:25.004Z,21.63
2023-12-13T08:08:52.904Z,21.63
2023-12-13T08:11:20.184Z,15.77
2023-12-13T08:13:47.406Z,27.35
2023-12-13T08:16:14.867Z,25.80
2023-12-13T08:18:42.340Z,21.67
2023-12-13T08:21:09.795Z,21.65
2023-12-13T08:23:37.034Z,25.77
2023-12-13T08:26:04.513Z,21.35
2023-12-13T08:28:31.763Z,17.92
2023-12-13T08:31:08.860Z,16.23
2023-12-13T08:33:45.180Z,16.80
2023-12-13T08:36:13.303Z,16.40
2023-12-13T08:38:41.091Z,21.80
2023-12-13T08:41:09.245Z,20.50
2023-12-13T08:43:36.834Z,21.08
2023-12-13T08:46:04.260Z,22.55
2023-12-13T08:48:32.135Z,24.25
2023-12-13T08:51:00.092Z,19.38
2023-12-13T08:53:27.216Z,18.92
2023-12-13T08:55:54.517Z,20.20
2023-12-13T08:58:22.255Z,18.73
2023-12-13T09:00:49.762Z,15.57
2023-12-13T09:03:17.151Z,18.92
2023-12-13T09:05:45.199Z,20.40
2023-12-13T09:08:12.341Z,21.90
2023-12-13T09:10:39.542Z,17.77
2023-12-13T09:13:06.848Z,22.30
2023-12-13T09:15:34.334Z,19.38
2023-12-13T09:18:02.073Z,27.23
2023-12-13T09:20:29.417Z,18.25
2023-12-13T09:22:56.603Z,27.38
2023-12-13T09:25:23.810Z,20.60
2023-12-13T09:27:51.246Z,17.52
2023-12-13T09:30:18.548Z,15.75
2023-12-13T09:32:47.956Z,25.58
2023-12-13T09:35:16.151Z,17.75
2023-12-13T09:37:43.368Z,19.92
2023-12-13T09:40:17.104Z,15.90
2023-12-13T09:42:48.615Z,19.75
2023-12-13T09:45:22.097Z,22.42
2023-12-13T09:50:19.404Z,16.23
2023-12-13T09:52:47.863Z,18.90
2023-12-13T09:55:16.915Z,16.25
2023-12-13T09:57:44.289Z,18.75
2023-12-13T10:00:15.258Z,16.67
2023-12-13T10:02:42.491Z,12.45
2023-12-13T10:05:13.103Z,17.60
2023-12-13T10:07:41.477Z,15.18
2023-12-13T10:10:09.079Z,14.38
2023-12-13T10:12:38.495Z,17.80
2023-12-13T10:15:13.298Z,15.98
2023-12-13T10:17:42.395Z,14.02
2023-12-13T10:20:12.187Z,14.75
2023-12-13T10:22:40.608Z,15.48
2023-12-13T10:25:08.559Z,15.70
2023-12-13T10:27:36.412Z,16.73
2023-12-13T10:30:05.441Z,17.52
2023-12-13T10:32:32.948Z,11.07
2023-12-13T10:35:03.762Z,11.80
2023-12-13T10:37:35.791Z,11.43
2023-12-13T10:40:07.385Z,11.30
2023-12-13T10:42:38.477Z,12.32
2023-12-13T10:45:07.007Z,13.05
2023-12-13T10:47:37.479Z,14.13
2023-12-13T10:50:06.687Z,12.20
2023-12-13T10:52:35.127Z,14.00
2023-12-13T10:55:02.365Z,16.98
2023-12-13T10:57:29.830Z,12.70
2023-12-13T10:59:57.302Z,9.68
2023-12-13T11:02:27.726Z,13.43
2023-12-13T11:04:55.311Z,13.18
2023-12-13T11:07:23.408Z,12.95
2023-12-13T11:09:55.687Z,14.32
2023-12-13T11:12:23.274Z,8.80
2023-12-13T11:14:54.375Z,14.00
2023-12-13T11:17:23.434Z,14.07
2023-12-13T11:19:53.800Z,14.45
2023-12-13T11:22:26.993Z,10.65
2023-12-13T11:25:04.564Z,12.67
2023-12-13T11:27:35.206Z,13.63
2023-12-13T11:30:16.159Z,16.15
2023-12-13T11:32:45.464Z,16.20
2023-12-13T11:35:18.789Z,12.70
2023-12-13T11:37:52.701Z,14.73
2023-12-13T11:42:52.074Z,15.98
2023-12-13T11:45:22.778Z,13.52
2023-12-13T11:47:51.615Z,18.65
2023-12-13T11:50:21.340Z,19.13
2023-12-13T11:52:49.400Z,17.75
2023-12-13T11:55:24.534Z,15.95
2023-12-13T11:57:59.462Z,21.35
2023-12-13T12:00:26.707Z,20.20
2023-12-13T12:02:55.421Z,18.35
2023-12-13T12:05:24.842Z,17.67
2023-12-13T12:08:05.363Z,15.88
2023-12-13T12:10:33.080Z,17.52
2023-12-13T12:13:01.589Z,19.15
2023-12-13T12:15:28.970Z,18.60
2023-12-13T12:17:56.219Z,13.50
2023-12-13T12:20:25.232Z,13.20
2023-12-13T12:22:53.198Z,19.27
2023-12-13T12:25:23.822Z,17.90
2023-12-13T12:27:51.323Z,14.77
2023-12-13T12:30:19.404Z,21.25
2023-12-13T12:32:46.729Z,14.75
2023-12-13T12:35:14.009Z,18.40
2023-12-13T12:37:42.071Z,19.38
2023-12-13T12:40:10.171Z,17.23
2023-12-13T12:42:37.766Z,17.00
2023-12-13T12:45:08.072Z,16.48
2023-12-13T12:47:35.818Z,16.65
2023-12-13T12:50:04.140Z,18.30
2023-12-13T12:52:31.445Z,16.35
2023-12-13T12:54:58.634Z,16.27
2023-12-13T12:57:26.251Z,16.25
2023-12-13T12:59:53.478Z,13.23
2023-12-13T13:02:20.775Z,16.17
2023-12-13T13:04:48.404Z,16.42
2023-12-13T13:07:16.314Z,16.20
2023-12-13T13:09:43.479Z,17.83
2023-12-13T13:12:11.165Z,14.30
2023-12-13T13:14:39.364Z,14.23
2023-12-13T13:17:07.445Z,18.77
2023-12-13T13:19:34.664Z,15.90
2023-12-13T13:22:05.592Z,12.82
2023-12-13T13:24:35.568Z,16.65
2023-12-13T13:27:04.379Z,13.43
2023-12-13T13:29:33.646Z,18.90
2023-12-13T13:32:01.275Z,19.33
2023-12-13T13:34:28.458Z,14.35
2023-12-13T13:36:55.782Z,18.35
2023-12-13T13:39:23.150Z,16.98
2023-12-13T13:41:51.019Z,16.17
2023-12-13T13:44:18.405Z,17.27
2023-12-13T13:46:46.212Z,14.57
2023-12-13T13:49:13.437Z,15.18
2023-12-13T13:51:40.529Z,15.60
2023-12-13T13:54:08.273Z,13.55
2023-12-13T13:56:38.747Z,13.48
2023-12-13T13:59:07.105Z,11.05
2023-12-13T14:01:35.674Z,12.25
2023-12-13T14:04:03.034Z,11.55
2023-12-13T14:06:32.938Z,12.40
2023-12-13T14:09:00.375Z,10.95
2023-12-13T14:11:28.000Z,11.63
2023-12-13T14:13:55.219Z,14.02
2023-12-13T14:16:22.951Z,10.52
2023-12-13T14:18:50.322Z,12.77
2023-12-13T14:21:17.474Z,15.48
2023-12-13T14:23:46.915Z,15.07
2023-12-13T14:26:16.074Z,11.93
2023-12-13T14:28:43.526Z,17.98
2023-12-13T14:31:11.480Z,16.58
2023-12-13T14:33:38.666Z,15.68
2023-12-13T14:36:09.050Z,14.02
2023-12-13T14:38:38.768Z,15.10
2023-12-13T14:41:07.293Z,13.35
2023-12-13T14:43:35.732Z,19.45
2023-12-13T14:46:03.137Z,15.98
2023-12-13T14:48:30.497Z,17.48
2023-12-13T14:50:57.761Z,12.23
2023-12-13T14:53:24.902Z,13.60
2023-12-13T14:55:52.856Z,11.93
2023-12-13T14:58:20.043Z,18.08
2023-12-13T15:00:47.226Z,15.63
2023-12-13T15:03:14.705Z,16.08
2023-12-13T15:05:42.136Z,15.45
2023-12-13T15:08:10.149Z,13.85
2023-12-13T15:10:37.373Z,11.00
2023-12-13T15:13:08.743Z,11.60
2023-12-13T15:15:36.546Z,15.05
2023-12-13T15:18:03.944Z,12.52
2023-12-13T15:20:31.349Z,14.23
2023-12-13T15:22:58.708Z,13.52
2023-12-13T15:25:26.023Z,17.42
2023-12-13T15:27:53.308Z,14.50
2023-12-13T15:30:22.585Z,14.30
2023-12-13T15:32:49.887Z,12.98
2023-12-13T15:35:17.120Z,16.65
2023-12-13T15:37:44.390Z,13.80
2023-12-13T15:40:12.069Z,16.13
2023-12-13T15:42:39.336Z,14.75
2023-12-13T15:45:08.669Z,12.60
2023-12-13T15:47:37.905Z,18.55
2023-12-13T15:50:09.183Z,15.50
2023-12-13T15:52:42.175Z,18.77
2023-12-13T15:55:09.532Z,17.25
2023-12-13T15:57:36.685Z,19.67
2023-12-13T16:00:05.387Z,16.25
2023-12-13T16:02:32.615Z,19.15
2023-12-13T16:04:59.920Z,15.27
2023-12-13T16:07:27.167Z,18.60
2023-12-13T16:09:54.321Z,19.00
2023-12-13T16:12:22.305Z,16.88
2023-12-13T16:14:49.483Z,14.07
2023-12-13T16:17:16.581Z,16.48
2023-12-13T16:19:43.772Z,14.32
2023-12-13T16:22:10.937Z,16.23
2023-12-13T16:24:38.086Z,13.88
2023-12-13T16:27:05.939Z,15.75
2023-12-13T16:29:33.047Z,16.80
2023-12-13T16:32:00.551Z,14.10
2023-12-13T16:34:27.666Z,13.43
2023-12-13T16:36:54.875Z,16.77
2023-12-13T16:39:22.093Z,15.50
2023-12-13T16:41:49.427Z,17.55
2023-12-13T16:44:17.585Z,16.48
2023-12-13T16:46:45.157Z,18.95
2023-12-13T16:49:12.671Z,20.20
2023-12-13T16:51:40.318Z,19.20
2023-12-13T16:54:07.982Z,14.40
2023-12-13T16:56:36.101Z,17.77
2023-12-13T16:59:06.022Z,19.77
2023-12-13T17:01:33.364Z,24.25
2023-12-13T17:04:03.413Z,20.02
2023-12-13T17:06:31.477Z,22.90
2023-12-13T17:09:00.802Z,29.00
2023-12-13T17:11:29.504Z,25.00
2023-12-13T17:13:57.176Z,24.50
2023-12-13T17:16:25.166Z,24.75
2023-12-13T17:18:52.516Z,27.05
2023-12-13T17:21:19.697Z,30.33
2023-12-13T17:23:46.804Z,35.88
2023-12-13T17:26:14.827Z,29.70
2023-12-13T17:28:42.442Z,26.10
2023-12-13T17:31:09.953Z,29.40
2023-12-13T17:33:37.272Z,28.92
2023-12-13T17:36:05.367Z,26.65
2023-12-13T17:38:32.614Z,38.95
2023-12-13T17:41:00.053Z,26.00
2023-12-13T17:43:27.321Z,27.08
2023-12-13T17:45:54.526Z,40.35
2023-12-13T17:48:22.878Z,31.58
2023-12-13T17:50:50.286Z,33.47
2023-12-13T17:53:18.055Z,37.17
2023-12-13T17:55:46.175Z,39.63
2023-12-13T17:58:13.503Z,34.83
2023-12-13T18:00:40.944Z,44.03
2023-12-13T18:03:09.596Z,29.17
2023-12-13T18:05:37.048Z,33.03
2023-12-13T18:08:04.575Z,31.73
2023-12-13T18:10:32.064Z,31.50
2023-12-13T18:12:59.523Z,31.65
2023-12-13T18:15:26.716Z,43.33
2023-12-13T18:17:53.877Z,32.03
2023-12-13T18:20:21.173Z,45.25
2023-12-13T18:22:48.421Z,40.42
2023-12-13T18:25:15.570Z,27.70
2023-12-13T18:27:42.719Z,34.75
2023-12-13T18:30:10.021Z,30.52
2023-12-13T18:32:37.661Z,31.02
2023-12-13T18:35:05.459Z,33.70
2023-12-13T18:37:32.603Z,39.45
2023-12-13T18:39:59.740Z,35.80
2023-12-13T18:42:26.852Z,35.75
2023-12-13T18:44:54.769Z,39.47
2023-12-13T18:47:23.207Z,33.00
2023-12-13T18:49:51.228Z,26.77
2023-12-13T18:52:18.503Z,36.53
2023-12-13T18:54:45.688Z,32.47
2023-12-13T18:57:13.116Z,42.85
2023-12-13T18:59:40.903Z,42.38
2023-12-13T19:02:08.207Z,37.00
2023-12-13T19:04:36.221Z,33.63
2023-12-13T19:07:03.398Z,41.72
2023-12-13T19:09:32.847Z,38.97
2023-12-13T19:12:01.486Z,34.95
2023-12-13T19:14:28.783Z,32.55
2023-12-13T19:16:55.978Z,31.98
2023-12-13T19:19:23.726Z,33.72
2023-12-13T19:21:51.623Z,40.22
2023-12-13T19:24:18.946Z,34.67
2023-12-13T19:26:46.604Z,44.00
2023-12-13T19:29:16.629Z,38.90
2023-12-13T19:31:46.569Z,43.22
2023-12-13T19:34:22.804Z,37.53
2023-12-13T19:36:57.499Z,29.20
2023-12-13T19:39:24.679Z,21.75
2023-12-13T19:41:52.638Z,25.85
2023-12-13T19:44:19.759Z,20.92
2023-12-13T19:46:47.058Z,19.65
2023-12-13T19:49:14.373Z,19.42
2023-12-13T19:51:41.967Z,17.60
2023-12-13T19:54:10.019Z,20.77
2023-12-13T19:56:37.324Z,11.98
2023-12-13T19:59:07.211Z,23.38
2023-12-13T20:01:34.903Z,12.20
2023-12-13T20:04:02.213Z,12.18
2023-12-13T20:06:29.620Z,13.02
2023-12-13T20:08:56.856Z,13.18
2023-12-13T20:11:24.023Z,11.63
2023-12-13T20:13:56.453Z,12.45
2023-12-13T20:16:24.918Z,10.27
2023-12-13T20:18:52.477Z,6.82
2023-12-13T20:21:19.634Z,6.85
2023-12-13T20:23:46.790Z,6.88
2023-12-13T20:26:14.473Z,7.68
2023-12-13T20:28:41.924Z,7.55
2023-12-13T20:31:09.217Z,8.60
2023-12-13T20:33:36.450Z,7.85
2023-12-13T20:36:07.817Z,5.68
2023-12-13T20:38:35.047Z,7.25
2023-12-13T20:41:02.606Z,6.22
2023-12-13T20:43:29.773Z,5.50
2023-12-13T20:45:56.858Z,5.20
2023-12-13T20:48:24.051Z,4.22
2023-12-13T20:50:51.220Z,5.70
2023-12-13T20:53:18.333Z,6.68
2023-12-13T20:55:45.503Z,6.10
2023-12-13T20:58:12.607Z,7.15
2023-12-13T21:00:40.130Z,6.10
2023-12-13T21:03:07.477Z,7.40
2023-12-13T21:05:35.042Z,8.63
2023-12-13T21:08:02.359Z,7.00
2023-12-13T21:10:29.509Z,14.48
2023-12-13T21:12:56.662Z,15.38
2023-12-13T21:15:23.820Z,17.30
2023-12-13T21:17:51.231Z,20.92
2023-12-13T21:20:18.498Z,19.52
2023-12-13T21:22:46.152Z,22.58
2023-12-13T21:25:13.350Z,21.38
2023-12-13T21:27:40.521Z,19.75
2023-12-13T21:30:08.071Z,18.50
2023-12-13T21:32:35.671Z,17.55
2023-12-13T21:35:04.628Z,15.63
2023-12-13T21:37:31.909Z,15.63
2023-12-13T21:39:59.406Z,16.02
2023-12-13T21:42:26.816Z,16.75
2023-12-13T21:44:53.907Z,18.65
2023-12-13T21:47:22.313Z,23.17
2023-12-13T21:49:49.531Z,22.13
2023-12-13T21:52:19.296Z,17.23
2023-12-13T21:54:49.124Z,16.23
2023-12-13T21:57:16.352Z,17.83
2023-12-13T21:59:43.432Z,13.55
2023-12-13T22:02:10.712Z,13.02
2023-12-13T22:04:38.080Z,11.85
2023-12-13T22:07:05.195Z,11.77
2023-12-13T22:09:32.386Z,12.98
2023-12-13T22:11:59.495Z,15.95
2023-12-13T22:14:26.713Z,13.20
2023-12-13T22:16:54.265Z,12.63
2023-12-13T22:19:47.380Z,12.13
2023-12-13T22:22:16.276Z,11.90
2023-12-13T22:24:43.421Z,11.43
2023-12-13T22:27:10.582Z,11.77
2023-12-13T22:29:37.803Z,9.25
2023-12-13T22:32:06.035Z,10.55
2023-12-13T22:34:33.742Z,13.63
2023-12-13T22:37:00.923Z,10.40
2023-12-13T22:39:28.149Z,10.63
2023-12-13T22:41:55.278Z,10.85
2023-12-13T22:44:22.745Z,10.13
2023-12-13T22:46:49.947Z,13.05
2023-12-13T22:49:18.771Z,12.45
2023-12-13T22:52:18.358Z,10.85
2023-12-13T22:54:35.256Z,12.88
2023-12-13T22:57:02.424Z,12.13
2023-12-13T22:59:29.589Z,16.05
2023-12-13T23:01:58.678Z,11.25
2023-12-13T23:04:27.644Z,11.40
2023-12-13T23:06:54.776Z,13.68
2023-12-13T23:09:22.460Z,12.60
2023-12-13T23:11:49.577Z,10.82
2023-12-13T23:14:16.919Z,10.68
2023-12-13T23:16:44.153Z,12.68
2023-12-13T23:19:11.681Z,12.77
2023-12-13T23:21:38.910Z,11.95
2023-12-13T23:24:06.483Z,12.02
2023-12-13T23:26:33.560Z,11.95
2023-12-13T23:29:00.796Z,14.02
2023-12-13T23:31:33.653Z,11.27
2023-12-13T23:34:06.522Z,13.60
2023-12-13T23:36:34.869Z,14.77
2023-12-13T23:39:02.146Z,14.40
2023-12-13T23:41:29.269Z,11.35
2023-12-13T23:43:56.452Z,13.38
2023-12-13T23:46:23.668Z,14.05
2023-12-13T23:48:51.949Z,14.07
2023-12-13T23:51:19.356Z,14.32
2023-12-13T23:53:46.551Z,14.57
2023-12-13T23:56:23.958Z,16.52
2023-12-13T23:58:51.501Z,17.48
